createdAt,value
2018-03-07T00:00:27.768Z,95345.08
2018-03-07T00:02:54.019Z,95352.73
2018-03-07T00:05:20.261Z,95357.61
2018-03-07T00:07:46.612Z,95351.42
2018-03-07T00:10:12.843Z,95354.22
2018-03-07T00:12:39.120Z,95352.78
2018-03-07T00:15:05.371Z,95354.11
2018-03-07T00:17:31.664Z,95355.67
2018-03-07T00:19:57.908Z,95358.31
2018-03-07T00:22:24.137Z,95356.22
2018-03-07T00:24:50.384Z,95354.44
2018-03-07T00:27:16.620Z,95362.13
2018-03-07T00:29:42.885Z,95355.52
2018-03-07T00:32:09.277Z,95358.64
2018-03-07T00:34:35.523Z,95359.89
2018-03-07T00:37:01.747Z,95359.61
2018-03-07T00:39:27.992Z,95359.98
2018-03-07T00:41:54.221Z,95359.45
2018-03-07T00:44:20.515Z,95353.23
2018-03-07T00:46:46.744Z,95350.84
2018-03-07T00:49:12.964Z,95356.30
2018-03-07T00:51:39.231Z,95352.88
2018-03-07T00:54:05.460Z,95352.95
2018-03-07T00:56:31.716Z,95355.44
2018-03-07T00:58:57.959Z,95354.77
2018-03-07T01:01:25.160Z,95357.87
2018-03-07T01:03:51.399Z,95357.40
2018-03-07T01:06:17.644Z,95352.34
2018-03-07T01:08:43.880Z,95359.95
2018-03-07T01:11:10.145Z,95357.13
2018-03-07T01:13:36.375Z,95365.23
2018-03-07T01:16:02.615Z,95360.39
2018-03-07T01:18:28.872Z,95359.16
2018-03-07T01:20:55.280Z,95359.87
2018-03-07T01:23:21.526Z,95353.88
2018-03-07T01:25:47.751Z,95353.58
2018-03-07T01:28:14.001Z,95351.42
2018-03-07T01:30:40.282Z,95354.34
2018-03-07T01:33:06.544Z,95355.20
2018-03-07T01:35:32.768Z,95352.95
2018-03-07T01:37:59.000Z,95354.38
2018-03-07T01:40:25.252Z,95352.89
2018-03-07T01:42:51.481Z,95350.44
2018-03-07T01:45:17.735Z,95353.71
2018-03-07T01:47:44.002Z,95358.42
2018-03-07T01:50:10.275Z,95353.10
2018-03-07T01:52:36.499Z,95354.84
2018-03-07T01:55:02.763Z,95348.64
2018-03-07T01:57:28.992Z,95353.39
2018-03-07T01:59:55.248Z,95353.08
2018-03-07T02:02:21.483Z,95354.41
2018-03-07T02:04:47.718Z,95352.44
2018-03-07T02:07:13.975Z,95355.77
2018-03-07T02:09:40.199Z,95353.41
2018-03-07T02:12:06.455Z,95363.09
2018-03-07T02:14:32.680Z,95352.40
2018-03-07T02:16:58.924Z,95356.20
2018-03-07T02:19:25.145Z,95355.81
2018-03-07T02:21:51.400Z,95358.19
2018-03-07T02:24:17.622Z,95355.91
2018-03-07T02:26:43.855Z,95357.11
2018-03-07T02:29:10.104Z,95351.95
2018-03-07T02:31:36.352Z,95352.22
2018-03-07T02:34:02.617Z,95356.59
2018-03-07T02:36:32.978Z,95358.17
2018-03-07T02:38:59.445Z,95364.80
2018-03-07T02:41:25.679Z,95361.13
2018-03-07T02:43:51.923Z,95365.83
2018-03-07T02:46:18.179Z,95364.16
2018-03-07T02:48:44.435Z,95370.08
2018-03-07T02:51:10.658Z,95368.34
2018-03-07T02:53:36.882Z,95365.36
2018-03-07T02:56:03.119Z,95366.84
2018-03-07T02:58:29.340Z,95367.71
2018-03-07T03:00:55.593Z,95367.51
2018-03-07T03:03:21.822Z,95371.66
2018-03-07T03:05:48.075Z,95369.30
2018-03-07T03:08:14.316Z,95370.44
2018-03-07T03:10:40.564Z,95372.14
2018-03-07T03:13:06.802Z,95371.39
2018-03-07T03:15:33.055Z,95370.17
2018-03-07T03:17:59.279Z,95372.64
2018-03-07T03:20:25.508Z,95368.34
2018-03-07T03:22:51.756Z,95370.17
2018-03-07T03:25:17.984Z,95372.58
2018-03-07T03:27:44.227Z,95375.83
2018-03-07T03:30:10.461Z,95370.48
2018-03-07T03:32:36.704Z,95374.05
2018-03-07T03:35:03.103Z,95380.03
2018-03-07T03:37:29.344Z,95375.56
2018-03-07T03:39:55.560Z,95379.56
2018-03-07T03:42:21.832Z,95384.27
2018-03-07T03:44:48.055Z,95383.70
2018-03-07T03:47:14.277Z,95379.03
2018-03-07T03:49:40.519Z,95376.51
2018-03-07T03:52:06.739Z,95380.84
2018-03-07T03:54:32.991Z,95385.39
2018-03-07T03:56:59.215Z,95389.02
2018-03-07T03:59:25.451Z,95389.47
2018-03-07T04:01:51.675Z,95384.48
2018-03-07T04:04:17.912Z,95389.39
2018-03-07T04:06:44.144Z,95386.02
2018-03-07T04:09:10.370Z,95386.45
2018-03-07T04:11:36.617Z,95387.81
2018-03-07T04:14:02.851Z,95378.42
2018-03-07T04:16:29.091Z,95385.02
2018-03-07T04:18:55.314Z,95385.48
2018-03-07T04:21:21.562Z,95387.80
2018-03-07T04:23:47.776Z,95385.63
2018-03-07T04:26:14.016Z,95382.99
2018-03-07T04:28:40.239Z,95388.91
2018-03-07T04:31:06.521Z,95390.72
2018-03-07T04:33:32.743Z,95389.70
2018-03-07T04:35:58.972Z,95389.44
2018-03-07T04:38:25.229Z,95398.45
2018-03-07T04:40:51.468Z,95390.55
2018-03-07T04:43:17.708Z,95392.67
2018-03-07T04:45:43.937Z,95395.70
2018-03-07T04:48:10.173Z,95406.26
2018-03-07T04:50:36.387Z,95396.25
2018-03-07T04:53:02.631Z,95395.92
2018-03-07T04:55:28.847Z,95388.59
2018-03-07T04:57:55.104Z,95391.75
2018-03-07T05:00:21.331Z,95403.67
2018-03-07T05:02:47.584Z,95402.83
2018-03-07T05:05:13.847Z,95396.23
2018-03-07T05:07:40.080Z,95386.98
2018-03-07T05:10:06.319Z,95392.30
2018-03-07T05:12:32.539Z,95396.09
2018-03-07T05:14:58.811Z,95400.48
2018-03-07T05:17:25.024Z,95408.37
2018-03-07T05:19:51.272Z,95411.92
2018-03-07T05:22:17.500Z,95416.80
2018-03-07T05:24:43.750Z,95415.78
2018-03-07T05:27:09.971Z,95405.70
2018-03-07T05:29:36.216Z,95410.88
2018-03-07T05:32:02.496Z,95409.53
2018-03-07T05:34:28.724Z,95420.74
2018-03-07T05:36:54.956Z,95411.28
2018-03-07T05:39:21.203Z,95419.74
2018-03-07T05:41:47.452Z,95422.32
2018-03-07T05:44:13.680Z,95414.50
2018-03-07T05:46:39.938Z,95417.08
2018-03-07T05:49:06.163Z,95416.33
2018-03-07T05:51:32.399Z,95417.56
2018-03-07T05:53:58.783Z,95413.16
2018-03-07T05:56:25.015Z,95421.20
2018-03-07T05:58:51.268Z,95415.55
2018-03-07T06:01:17.500Z,95427.77
2018-03-07T06:03:43.748Z,95426.93
2018-03-07T06:06:09.971Z,95427.66
2018-03-07T06:08:36.223Z,95420.27
2018-03-07T06:11:02.461Z,95423.09
2018-03-07T06:13:28.720Z,95429.63
2018-03-07T06:15:54.967Z,95431.88
2018-03-07T06:18:21.191Z,95441.67
2018-03-07T06:20:47.448Z,95437.95
2018-03-07T06:23:13.673Z,95439.86
2018-03-07T06:25:39.907Z,95443.89
2018-03-07T06:28:06.163Z,95442.35
2018-03-07T06:30:32.404Z,95446.27
2018-03-07T06:32:58.640Z,95443.80
2018-03-07T06:35:24.900Z,95447.56
2018-03-07T06:37:51.132Z,95445.54
2018-03-07T06:40:17.389Z,95453.03
2018-03-07T06:42:43.639Z,95451.28
2018-03-07T06:45:09.866Z,95455.00
2018-03-07T06:47:36.136Z,95456.70
2018-03-07T06:50:02.410Z,95457.28
2018-03-07T06:52:28.641Z,95457.56
2018-03-07T06:54:54.856Z,95470.34
2018-03-07T06:57:21.085Z,95460.86
2018-03-07T06:59:47.308Z,95464.41
2018-03-07T07:02:13.548Z,95467.62
2018-03-07T07:04:39.764Z,95476.06
2018-03-07T07:07:05.979Z,95479.97
2018-03-07T07:09:32.216Z,95480.31
2018-03-07T07:11:58.456Z,95483.23
2018-03-07T07:14:24.726Z,95482.17
2018-03-07T07:16:50.946Z,95486.84
2018-03-07T07:19:17.188Z,95483.42
2018-03-07T07:21:43.528Z,95495.03
2018-03-07T07:24:09.760Z,95502.09
2018-03-07T07:26:35.976Z,95505.56
2018-03-07T07:29:02.224Z,95505.73
2018-03-07T07:31:28.466Z,95510.19
2018-03-07T07:33:54.680Z,95511.93
2018-03-07T07:36:20.920Z,95508.78
2018-03-07T07:38:47.144Z,95514.30
2018-03-07T07:41:13.380Z,95513.89
2018-03-07T07:43:39.587Z,95514.70
2018-03-07T07:46:05.824Z,95517.76
2018-03-07T07:48:32.071Z,95515.26
2018-03-07T07:50:58.308Z,95512.76
2018-03-07T07:53:24.531Z,95511.42
2018-03-07T07:55:50.787Z,95516.31
2018-03-07T07:58:18.148Z,95522.51
2018-03-07T08:00:44.402Z,95524.59
2018-03-07T08:03:10.612Z,95516.01
2018-03-07T08:05:36.828Z,95528.48
2018-03-07T08:08:03.113Z,95528.02
2018-03-07T08:10:29.336Z,95522.09
2018-03-07T08:12:55.568Z,95531.30
2018-03-07T08:15:21.784Z,95526.31
2018-03-07T08:17:48.017Z,95531.32
2018-03-07T08:20:14.244Z,95534.02
2018-03-07T08:22:40.495Z,95531.77
2018-03-07T08:25:06.712Z,95541.91
2018-03-07T08:27:32.928Z,95538.30
2018-03-07T08:29:59.196Z,95535.57
2018-03-07T08:32:25.415Z,95540.69
2018-03-07T08:34:51.692Z,95545.20
2018-03-07T08:37:17.911Z,95548.58
2018-03-07T08:39:44.160Z,95550.95
2018-03-07T08:42:10.412Z,95557.44
2018-03-07T08:44:36.666Z,95557.80
2018-03-07T08:47:02.912Z,95558.05
2018-03-07T08:49:29.127Z,95559.45
2018-03-07T08:51:55.365Z,95562.43
2018-03-07T08:54:21.619Z,95569.44
2018-03-07T08:56:47.860Z,95566.92
2018-03-07T08:59:14.075Z,95568.81
2018-03-07T09:01:40.311Z,95571.08
2018-03-07T09:04:06.532Z,95570.70
2018-03-07T09:06:32.771Z,95572.55
2018-03-07T09:08:59.007Z,95570.05
2018-03-07T09:11:25.248Z,95581.55
2018-03-07T09:13:51.471Z,95580.30
2018-03-07T09:16:17.688Z,95589.03
2018-03-07T09:18:43.944Z,95584.98
2018-03-07T09:21:10.151Z,95586.84
2018-03-07T09:23:36.397Z,95593.02
2018-03-07T09:26:02.632Z,95586.96
2018-03-07T09:28:28.888Z,95593.55
2018-03-07T09:30:55.104Z,95601.30
2018-03-07T09:33:21.343Z,95600.22
2018-03-07T09:35:47.585Z,95604.12
2018-03-07T09:38:13.852Z,95603.98
2018-03-07T09:40:40.071Z,95595.99
2018-03-07T09:43:06.313Z,95605.93
2018-03-07T09:45:32.557Z,95603.10
2018-03-07T09:47:58.776Z,95604.91
2018-03-07T09:50:25.027Z,95603.32
2018-03-07T09:52:51.236Z,95603.45
2018-03-07T09:55:17.487Z,95605.24
2018-03-07T09:57:43.712Z,95616.03
2018-03-07T10:00:09.945Z,95609.33
2018-03-07T10:02:36.156Z,95609.63
2018-03-07T10:05:02.452Z,95617.22
2018-03-07T10:07:28.672Z,95616.19
2018-03-07T10:09:54.885Z,95620.46
2018-03-07T10:12:21.133Z,95621.33
2018-03-07T10:14:47.375Z,95620.08
2018-03-07T10:17:13.621Z,95617.55
2018-03-07T10:19:39.847Z,95627.27
2018-03-07T10:22:06.194Z,95629.45
2018-03-07T10:24:32.413Z,95632.35
2018-03-07T10:26:58.668Z,95636.95
2018-03-07T10:29:24.899Z,95631.36
2018-03-07T10:31:51.124Z,95636.98
2018-03-07T10:34:17.412Z,95633.80
2018-03-07T10:36:43.631Z,95629.70
2018-03-07T10:39:09.890Z,95637.26
2018-03-07T10:41:36.118Z,95629.62
2018-03-07T10:44:02.374Z,95635.47
2018-03-07T10:46:28.592Z,95638.71
2018-03-07T10:48:54.836Z,95645.21
2018-03-07T10:51:21.057Z,95651.64
2018-03-07T10:53:47.319Z,95652.38
2018-03-07T10:56:13.546Z,95649.41
2018-03-07T10:58:39.766Z,95653.16
2018-03-07T11:01:06.020Z,95661.59
2018-03-07T11:03:32.250Z,95665.64
2018-03-07T11:05:58.484Z,95660.95
2018-03-07T11:08:24.712Z,95664.45
2018-03-07T11:10:50.972Z,95667.73
2018-03-07T11:13:17.193Z,95669.83
2018-03-07T11:15:43.438Z,95669.05
2018-03-07T11:18:09.700Z,95671.64
2018-03-07T11:20:35.976Z,95672.61
2018-03-07T11:23:02.184Z,95678.27
2018-03-07T11:25:28.438Z,95674.95
2018-03-07T11:27:54.668Z,95675.70
2018-03-07T11:30:20.888Z,95679.02
2018-03-07T11:32:47.129Z,95679.53
2018-03-07T11:35:13.363Z,95682.19
2018-03-07T11:37:39.605Z,95690.34
2018-03-07T11:40:05.828Z,95685.72
2018-03-07T11:42:32.093Z,95692.72
2018-03-07T11:44:58.358Z,95697.44
2018-03-07T11:47:24.548Z,95691.09
2018-03-07T11:49:50.784Z,95686.54
2018-03-07T11:52:17.001Z,95695.87
2018-03-07T11:54:43.243Z,95697.59
2018-03-07T11:57:09.465Z,95702.25
2018-03-07T11:59:35.708Z,95702.05
2018-03-07T12:02:01.936Z,95707.16
2018-03-07T12:04:28.178Z,95701.98
2018-03-07T12:06:54.404Z,95696.05
2018-03-07T12:09:20.685Z,95705.62
2018-03-07T12:11:46.917Z,95710.35
2018-03-07T12:14:13.174Z,95706.78
2018-03-07T12:16:39.401Z,95697.44
2018-03-07T12:19:05.619Z,95715.41
2018-03-07T12:21:31.849Z,95717.05
2018-03-07T12:23:58.136Z,95713.66
2018-03-07T12:26:24.389Z,95716.82
2018-03-07T12:28:50.611Z,95711.66
2018-03-07T12:31:16.853Z,95705.90
2018-03-07T12:33:43.076Z,95711.56
2018-03-07T12:36:09.332Z,95713.81
2018-03-07T12:38:35.549Z,95713.82
2018-03-07T12:41:01.772Z,95712.50
2018-03-07T12:43:28.010Z,95718.53
2018-03-07T12:45:54.248Z,95719.63
2018-03-07T12:48:20.492Z,95738.27
2018-03-07T12:50:46.704Z,95733.66
2018-03-07T12:53:12.939Z,95730.27
2018-03-07T12:55:39.154Z,95730.89
2018-03-07T12:58:05.408Z,95732.66
2018-03-07T13:00:31.656Z,95742.16
2018-03-07T13:02:57.880Z,95735.03
2018-03-07T13:05:24.124Z,95744.14
2018-03-07T13:07:50.341Z,95743.66
2018-03-07T13:10:16.584Z,95750.19
2018-03-07T13:12:42.805Z,95746.80
2018-03-07T13:15:09.040Z,95746.44
2018-03-07T13:17:35.261Z,95752.19
2018-03-07T13:20:01.513Z,95749.67
2018-03-07T13:22:27.772Z,95755.56
2018-03-07T13:24:54.027Z,95759.89
2018-03-07T13:27:20.256Z,95755.55
2018-03-07T13:29:46.490Z,95754.13
2018-03-07T13:32:12.740Z,95755.43
2018-03-07T13:34:38.979Z,95761.44
2018-03-07T13:37:05.219Z,95762.44
2018-03-07T13:39:31.460Z,95763.56
2018-03-07T13:41:57.714Z,95766.91
2018-03-07T13:44:23.948Z,95763.98
2018-03-07T13:46:50.213Z,95764.69
2018-03-07T13:49:16.439Z,95773.68
2018-03-07T13:51:42.668Z,95784.48
2018-03-07T13:54:08.921Z,95780.79
2018-03-07T13:56:35.132Z,95782.61
2018-03-07T13:59:01.396Z,95782.30
2018-03-07T14:01:27.628Z,95784.23
2018-03-07T14:03:53.867Z,95779.08
2018-03-07T14:06:20.084Z,95782.12
2018-03-07T14:08:46.329Z,95785.66
2018-03-07T14:11:12.552Z,95779.60
2018-03-07T14:13:38.819Z,95784.59
2018-03-07T14:16:05.073Z,95782.92
2018-03-07T14:18:31.328Z,95795.77
2018-03-07T14:20:57.609Z,95790.19
2018-03-07T14:23:23.855Z,95789.92
2018-03-07T14:25:50.116Z,95790.46
2018-03-07T14:28:16.360Z,95787.47
2018-03-07T14:30:42.604Z,95790.73
2018-03-07T14:33:08.839Z,95790.70
2018-03-07T14:35:35.088Z,95795.06
2018-03-07T14:38:02.568Z,95795.27
2018-03-07T14:40:28.828Z,95797.17
2018-03-07T14:42:55.052Z,95792.34
2018-03-07T14:45:21.272Z,95792.47
2018-03-07T14:47:47.519Z,95794.25
2018-03-07T14:50:13.740Z,95792.47
2018-03-07T14:52:39.991Z,95796.11
2018-03-07T14:55:06.261Z,95796.17
2018-03-07T14:57:32.475Z,95795.99
2018-03-07T14:59:58.708Z,95802.80
2018-03-07T15:02:24.957Z,95799.52
2018-03-07T15:04:51.176Z,95797.34
2018-03-07T15:07:17.400Z,95800.73
2018-03-07T15:09:43.649Z,95799.25
2018-03-07T15:12:09.888Z,95810.58
2018-03-07T15:14:36.136Z,95814.81
2018-03-07T15:17:02.352Z,95814.14
2018-03-07T15:19:28.601Z,95816.43
2018-03-07T15:21:54.815Z,95808.28
2018-03-07T15:24:21.065Z,95814.38
2018-03-07T15:26:47.292Z,95822.62
2018-03-07T15:29:13.555Z,95819.89
2018-03-07T15:31:39.785Z,95824.93
2018-03-07T15:34:06.013Z,95833.45
2018-03-07T15:36:32.264Z,95833.71
2018-03-07T15:38:58.523Z,95830.58
2018-03-07T15:41:24.769Z,95831.97
2018-03-07T15:43:50.998Z,95837.39
2018-03-07T15:46:17.231Z,95845.52
2018-03-07T15:48:43.452Z,95847.19
2018-03-07T15:51:09.709Z,95842.33
2018-03-07T15:53:35.932Z,95850.66
2018-03-07T15:56:02.184Z,95853.80
2018-03-07T15:58:28.445Z,95854.06
2018-03-07T16:00:54.687Z,95852.59
2018-03-07T16:03:20.937Z,95862.73
2018-03-07T16:05:47.164Z,95858.73
2018-03-07T16:08:13.399Z,95858.48
2018-03-07T16:10:39.621Z,95865.27
2018-03-07T16:13:05.880Z,95862.78
2018-03-07T16:15:32.124Z,95866.64
2018-03-07T16:17:58.352Z,95875.56
2018-03-07T16:20:24.644Z,95871.42
2018-03-07T16:22:50.835Z,95877.80
2018-03-07T16:25:17.076Z,95885.95
2018-03-07T16:27:43.312Z,95879.81
2018-03-07T16:30:09.552Z,95884.95
2018-03-07T16:32:35.788Z,95887.58
2018-03-07T16:35:02.041Z,95881.95
2018-03-07T16:37:28.260Z,95892.96
2018-03-07T16:39:54.490Z,95886.09
2018-03-07T16:42:20.736Z,95900.09
2018-03-07T16:44:47.012Z,95886.20
2018-03-07T16:47:13.253Z,95891.70
2018-03-07T16:49:39.512Z,95894.59
2018-03-07T16:52:05.777Z,95897.47
2018-03-07T16:54:32.003Z,95896.45
2018-03-07T16:56:58.254Z,95900.95
2018-03-07T16:59:24.512Z,95901.54
2018-03-07T17:01:50.759Z,95912.41
2018-03-07T17:04:17.025Z,95904.12
2018-03-07T17:06:43.237Z,95913.77
2018-03-07T17:09:09.581Z,95920.50
2018-03-07T17:11:36.165Z,95915.75
2018-03-07T17:14:02.582Z,95926.23
2018-03-07T17:16:28.866Z,95920.83
2018-03-07T17:18:55.136Z,95931.98
2018-03-07T17:21:21.356Z,95926.19
2018-03-07T17:23:48.635Z,95940.84
2018-03-07T17:26:14.888Z,95943.66
2018-03-07T17:28:41.156Z,95945.27
2018-03-07T17:31:07.360Z,95953.61
2018-03-07T17:33:33.591Z,95957.11
2018-03-07T17:35:59.840Z,95963.69
2018-03-07T17:38:26.076Z,95968.58
2018-03-07T17:40:52.325Z,95968.98
2018-03-07T17:43:18.560Z,95964.75
2018-03-07T17:45:44.808Z,95963.23
2018-03-07T17:48:11.056Z,95968.77
2018-03-07T17:50:37.283Z,95974.52
2018-03-07T17:53:03.524Z,95974.66
2018-03-07T17:55:29.787Z,95974.17
2018-03-07T17:57:56.036Z,95973.76
2018-03-07T18:00:22.256Z,95977.48
2018-03-07T18:02:48.519Z,95976.54
2018-03-07T18:05:14.767Z,95986.28
2018-03-07T18:07:41.046Z,95984.60
2018-03-07T18:10:07.304Z,95989.07
2018-03-07T18:12:33.532Z,95984.30
2018-03-07T18:14:59.775Z,95986.67
2018-03-07T18:17:25.992Z,95987.80
2018-03-07T18:19:52.240Z,95987.56
2018-03-07T18:22:18.489Z,95996.42
2018-03-07T18:24:44.741Z,95995.80
2018-03-07T18:27:10.972Z,96000.58
2018-03-07T18:29:37.216Z,95993.02
2018-03-07T18:32:03.445Z,95991.75
2018-03-07T18:34:29.733Z,95992.20
2018-03-07T18:36:55.948Z,95993.55
2018-03-07T18:39:22.190Z,95994.92
2018-03-07T18:41:48.432Z,95996.77
2018-03-07T18:44:14.796Z,95999.00
2018-03-07T18:46:41.040Z,95997.94
2018-03-07T18:49:07.430Z,96006.53
2018-03-07T18:51:33.708Z,95999.34
2018-03-07T18:53:59.941Z,96002.34
2018-03-07T18:56:26.155Z,95999.94
2018-03-07T18:58:52.616Z,95996.19
2018-03-07T19:01:18.838Z,96002.17
2018-03-07T19:03:45.076Z,96011.75
2018-03-07T19:06:11.374Z,96002.27
2018-03-07T19:08:37.646Z,96005.67
2018-03-07T19:11:03.900Z,96014.27
2018-03-07T19:13:30.153Z,96018.81
2018-03-07T19:15:56.381Z,96013.24
2018-03-07T19:18:22.646Z,96014.89
2018-03-07T19:20:48.884Z,96016.06
2018-03-07T19:23:15.107Z,96025.55
2018-03-07T19:25:41.358Z,96027.05
2018-03-07T19:28:07.603Z,96029.81
2018-03-07T19:30:33.844Z,96048.34
2018-03-07T19:33:00.081Z,96040.64
2018-03-07T19:35:26.337Z,96055.02
2018-03-07T19:37:52.567Z,96048.66
2018-03-07T19:40:18.828Z,96043.60
2018-03-07T19:42:45.065Z,96060.19
2018-03-07T19:45:11.357Z,96062.94
2018-03-07T19:47:37.603Z,96065.05
2018-03-07T19:50:03.881Z,96066.22
2018-03-07T19:52:30.116Z,96068.53
2018-03-07T19:54:56.336Z,96069.53
2018-03-07T19:57:22.669Z,96059.73
2018-03-07T19:59:48.930Z,96063.25
2018-03-07T20:02:15.161Z,96071.27
2018-03-07T20:04:41.427Z,96067.34
2018-03-07T20:07:07.675Z,96073.06
2018-03-07T20:09:33.925Z,96076.59
2018-03-07T20:12:00.151Z,96070.98
2018-03-07T20:14:26.400Z,96081.72
2018-03-07T20:16:52.623Z,96078.80
2018-03-07T20:19:18.884Z,96077.28
2018-03-07T20:21:45.112Z,96074.39
2018-03-07T20:24:11.349Z,96085.91
2018-03-07T20:26:40.883Z,96088.02
2018-03-07T20:29:07.380Z,96084.61
2018-03-07T20:31:46.145Z,96085.70
2018-03-07T20:34:12.470Z,96088.69
2018-03-07T20:36:38.872Z,96092.24
2018-03-07T20:39:05.140Z,96094.79
2018-03-07T20:41:31.743Z,96096.03
2018-03-07T20:43:58.025Z,96100.67
2018-03-07T20:46:24.536Z,96098.87
2018-03-07T20:48:50.843Z,96103.87
2018-03-07T20:51:17.072Z,96096.95
2018-03-07T20:53:43.369Z,96101.80
2018-03-07T20:56:09.834Z,96107.46
2018-03-07T20:58:36.200Z,96106.80
2018-03-07T21:01:02.476Z,96113.30
2018-03-07T21:03:29.060Z,96107.13
2018-03-07T21:05:55.348Z,96106.03
2018-03-07T21:08:21.844Z,96100.50
2018-03-07T21:10:48.190Z,96104.77
2018-03-07T21:13:14.431Z,96108.93
2018-03-07T21:15:40.834Z,96111.30
2018-03-07T21:18:07.096Z,96113.92
2018-03-07T21:20:33.598Z,96116.09
2018-03-07T21:22:59.843Z,96112.20
2018-03-07T21:25:26.333Z,96101.84
2018-03-07T21:27:52.662Z,96108.02
2018-03-07T21:30:19.033Z,96109.14
2018-03-07T21:32:45.446Z,96114.47
2018-03-07T21:35:11.704Z,96111.38
2018-03-07T21:37:38.022Z,96113.33
2018-03-07T21:40:04.243Z,96116.09
2018-03-07T21:42:30.711Z,96116.98
2018-03-07T21:44:56.974Z,96123.96
2018-03-07T21:47:23.557Z,96123.66
2018-03-07T21:49:49.897Z,96126.38
2018-03-07T21:52:16.247Z,96130.22
2018-03-07T21:54:42.517Z,96122.93
2018-03-07T21:57:08.752Z,96116.95
2018-03-07T21:59:35.105Z,96111.10
2018-03-07T22:02:01.534Z,96131.66
2018-03-07T22:04:27.777Z,96117.00
2018-03-07T22:06:54.173Z,96125.58
2018-03-07T22:09:20.435Z,96117.05
2018-03-07T22:11:46.923Z,96125.12
2018-03-07T22:14:13.153Z,96131.32
2018-03-07T22:16:39.591Z,96139.25
2018-03-07T22:19:05.838Z,96139.29
2018-03-07T22:21:32.392Z,96134.50
2018-03-07T22:23:58.703Z,96145.50
2018-03-07T22:26:24.986Z,96143.18
2018-03-07T22:28:51.535Z,96143.56
2018-03-07T22:31:17.775Z,96138.82
2018-03-07T22:33:44.151Z,96148.87
2018-03-07T22:36:10.432Z,96142.42
2018-03-07T22:38:36.916Z,96155.75
2018-03-07T22:41:03.324Z,96160.51
2018-03-07T22:43:29.668Z,96146.20
2018-03-07T22:45:56.203Z,96151.09
2018-03-07T22:48:22.443Z,96159.69
2018-03-07T22:50:48.929Z,96154.25
2018-03-07T22:53:15.285Z,96154.27
2018-03-07T22:55:41.526Z,96167.63
2018-03-07T22:58:08.001Z,96166.06
2018-03-07T23:00:40.224Z,96159.94
2018-03-07T23:03:06.889Z,96165.82
2018-03-07T23:05:33.341Z,96160.33
2018-03-07T23:07:59.653Z,96161.81
2018-03-07T23:10:26.237Z,96161.56
2018-03-07T23:12:52.464Z,96159.77
2018-03-07T23:15:19.016Z,96163.05
2018-03-07T23:17:45.346Z,96164.49
2018-03-07T23:20:11.648Z,96171.05
2018-03-07T23:22:37.981Z,96177.11
2018-03-07T23:25:04.296Z,96178.16
2018-03-07T23:27:30.744Z,96179.69
2018-03-07T23:29:56.981Z,96184.69
2018-03-07T23:32:23.519Z,96185.23
2018-03-07T23:34:49.755Z,96189.69
2018-03-07T23:37:16.276Z,96186.41
2018-03-07T23:39:42.573Z,96183.16
2018-03-07T23:42:09.457Z,96187.91
2018-03-07T23:44:36.693Z,96184.45
2018-03-07T23:47:03.379Z,96192.49
2018-03-07T23:49:29.973Z,96195.97
2018-03-07T23:51:56.267Z,96200.31
2018-03-07T23:54:22.705Z,96202.83
2018-03-07T23:56:49.080Z,96204.02
2018-03-07T23:59:15.730Z,96211.30
